Time;durP1;ratioP1;P1;durP2;ratioP2;P2;SDS_P1;SDS_P2;PMS_P1;PMS_P2;Temp;Humidity;BMP_temperature;BMP_pressure;BME280_temperature;BME280_humidity;BME280_pressure;Samples;Min_cycle;Max_cycle;Signal;HPM_P1;HPM_P2
2023/01/22 00:00:11;;;;;;;;;;;;;;;-0.44;100.00;99056.69;4970428;28;20074;-54
2023/01/22 00:02:39;;;;;;;;;;;;;;;-0.38;100.00;99057.72;4968641;28;19961;-55
2023/01/22 00:05:05;;;;;;;;;;;;;;;-0.48;100.00;99055.75;4986224;28;20011;-57
2023/01/22 00:07:30;;;;;;;;;;;;;;;-0.44;100.00;99052.53;4968701;28;19967;-58
2023/01/22 00:09:56;;;;;;;;;;;;;;;-0.42;100.00;99047.53;4969180;28;19955;-58
2023/01/22 00:12:22;;;;;;;;;;;;;;;-0.46;100.00;99052.47;4969512;28;19958;-56
2023/01/22 00:14:48;;;;;;;;;;;;;;;-0.40;100.00;99049.28;4969875;28;20341;-55
2023/01/22 00:17:14;;;;;;;;;;;;;;;-0.42;100.00;99057.63;4981846;28;20053;-56
2023/01/22 00:19:39;;;;;;;;;;;;;;;-0.39;100.00;99055.19;4968830;28;19951;-57
2023/01/22 00:22:05;;;;;;;;;;;;;;;-0.38;100.00;99060.25;4969706;28;20037;-58
2023/01/22 00:24:30;;;;;;;;;;;;;;;-0.43;100.00;99064.31;4969279;28;20967;-58
2023/01/22 00:26:55;;;;;;;;;;;;;;;-0.39;100.00;99061.06;4970841;28;19971;-57
2023/01/22 00:29:21;;;;;;;;;;;;;;;-0.41;100.00;99052.59;4970403;28;19992;-58
2023/01/22 00:31:47;;;;;;;;;;;;;;;-0.37;100.00;99048.50;4970064;28;20051;-58
2023/01/22 00:34:13;;;;;;;;;;;;;;;-0.36;100.00;99045.19;4984706;28;20444;-56
2023/01/22 00:36:39;;;;;;;;;;;;;;;-0.37;100.00;99049.38;4970240;28;19953;-56
2023/01/22 00:39:05;;;;;;;;;;;;;;;-0.35;100.00;99060.38;4969702;28;19953;-56
2023/01/22 00:41:34;;;;;;;;;;;;;;;-0.38;100.00;99056.91;4969381;28;19947;-58
2023/01/22 00:44:00;;;;;;;;;;;;;;;-0.36;100.00;99058.66;4983903;28;19951;-57
2023/01/22 00:46:25;;;;;;;;;;;;;;;-0.40;100.00;99056.84;4968312;28;20428;-56
2023/01/22 00:48:51;;;;;;;;;;;;;;;-0.38;100.00;99064.47;4970298;28;19999;-56
2023/01/22 00:51:16;;;;;;;;;;;;;;;-0.31;100.00;99059.66;4984011;28;19949;-55
2023/01/22 00:53:45;;;;;;;;;;;;;;;-0.30;100.00;99055.47;4969048;28;20165;-59
2023/01/22 00:56:11;;;;;;;;;;;;;;;-0.30;100.00;99071.44;4969730;28;20055;-58
2023/01/22 00:58:38;;;;;;;;;;;;;;;-0.27;100.00;99068.16;4983335;28;19949;-56
2023/01/22 01:01:04;;;;;;;;;;;;;;;-0.22;100.00;99070.00;4984568;28;20012;-55
2023/01/22 01:03:32;;;;;;;;;;;;;;;-0.24;100.00;99071.59;4981958;28;20430;-57
2023/01/22 01:06:00;;;;;;;;;;;;;;;-0.26;100.00;99079.94;4985059;28;19986;-58
2023/01/22 01:08:27;;;;;;;;;;;;;;;-0.27;100.00;99069.00;4983208;28;19988;-57
2023/01/22 01:10:54;;;;;;;;;;;;;;;-0.27;100.00;99078.22;4968649;28;19952;-55
2023/01/22 01:13:19;;;;;;;;;;;;;;;-0.25;100.00;99085.00;4981064;28;20780;-60
2023/01/22 01:15:45;;;;;;;;;;;;;;;-0.21;100.00;99096.06;4984089;28;20322;-54
2023/01/22 01:18:13;;;;;;;;;;;;;;;-0.21;100.00;99088.50;4968778;28;19981;-58
2023/01/22 01:20:39;;;;;;;;;;;;;;;-0.23;100.00;99090.09;4971220;28;19994;-59
2023/01/22 01:23:04;;;;;;;;;;;;;;;-0.23;100.00;99093.47;4970418;28;20482;-54
2023/01/22 01:25:30;;;;;;;;;;;;;;;-0.30;100.00;99091.59;4983989;28;19953;-57
2023/01/22 01:27:56;;;;;;;;;;;;;;;-0.28;100.00;99089.09;4968805;28;19965;-59
2023/01/22 01:30:22;;;;;;;;;;;;;;;-0.24;100.00;99104.34;4982804;28;20327;-56
2023/01/22 01:32:48;;;;;;;;;;;;;;;-0.19;100.00;99104.50;4969063;28;20421;-58
2023/01/22 01:35:13;;;;;;;;;;;;;;;-0.19;100.00;99110.41;4983367;28;19960;-58
2023/01/22 01:37:39;;;;;;;;;;;;;;;-0.21;100.00;99101.91;4971643;28;20300;-56
2023/01/22 01:40:05;;;;;;;;;;;;;;;-0.28;100.00;99104.22;4983721;28;19964;-56
2023/01/22 01:42:33;;;;;;;;;;;;;;;-0.20;100.00;99100.25;4970324;28;19957;-59
2023/01/22 01:45:17;;;;;;;;;;;;;;;-0.24;100.00;99091.75;4968122;28;19950;-57
2023/01/22 01:47:42;;;;;;;;;;;;;;;-0.28;100.00;99089.97;4967299;28;19989;-55
2023/01/22 01:50:08;;;;;;;;;;;;;;;-0.25;100.00;99104.28;4967778;28;20273;-55
2023/01/22 01:52:34;;;;;;;;;;;;;;;-0.25;100.00;99107.69;4968974;28;19953;-52
2023/01/22 01:55:00;;;;;;;;;;;;;;;-0.26;100.00;99111.03;4971080;28;20423;-57
2023/01/22 01:57:28;;;;;;;;;;;;;;;-0.24;100.00;99099.31;4973237;28;19959;-57
2023/01/22 01:59:56;;;;;;;;;;;;;;;-0.22;100.00;99105.28;4986903;28;19980;-55
2023/01/22 02:02:22;;;;;;;;;;;;;;;-0.30;100.00;99091.59;4972695;28;20017;-56
2023/01/22 02:04:48;;;;;;;;;;;;;;;-0.32;100.00;99088.16;4969143;28;20430;-55
2023/01/22 02:07:15;;;;;;;;;;;;;;;-0.31;100.00;99089.88;4980430;28;19966;-56
2023/01/22 02:09:40;;;;;;;;;;;;;;;-0.33;100.00;99085.56;4970492;28;20328;-55
2023/01/22 02:12:06;;;;;;;;;;;;;;;-0.37;100.00;99089.66;4974065;28;19949;-57
2023/01/22 02:14:33;;;;;;;;;;;;;;;-0.32;100.00;99093.19;4987867;28;20033;-56
2023/01/22 02:17:05;;;;;;;;;;;;;;;-0.32;100.00;99094.84;4971363;28;19952;-56
2023/01/22 02:19:30;;;;;;;;;;;;;;;-0.32;100.00;99084.78;4972057;28;19974;-57
2023/01/22 02:21:56;;;;;;;;;;;;;;;-0.36;100.00;99080.44;4970770;28;19950;-58
2023/01/22 02:24:21;;;;;;;;;;;;;;;-0.40;100.00;99079.50;4970875;28;20421;-55
2023/01/22 02:26:47;;;;;;;;;;;;;;;-0.38;100.00;99077.88;4985860;28;19973;-58
2023/01/22 02:29:16;;;;;;;;;;;;;;;-0.41;100.00;99082.81;4987179;28;20217;-54
2023/01/22 02:31:42;;;;;;;;;;;;;;;-0.47;100.00;99080.13;4985434;28;20587;-54
2023/01/22 02:34:08;;;;;;;;;;;;;;;-0.47;100.00;99077.63;4973257;28;20488;-54
2023/01/22 02:36:35;;;;;;;;;;;;;;;-0.46;100.00;99080.16;4986571;28;20100;-56
2023/01/22 02:39:01;;;;;;;;;;;;;;;-0.47;100.00;99075.94;4970974;28;19960;-57
2023/01/22 02:41:27;;;;;;;;;;;;;;;-0.43;100.00;99081.94;4970594;28;19952;-57
2023/01/22 02:43:52;;;;;;;;;;;;;;;-0.37;100.00;99091.31;4971474;28;19950;-58
2023/01/22 02:46:20;;;;;;;;;;;;;;;-0.43;100.00;99081.09;4970932;28;19976;-58
2023/01/22 02:48:45;;;;;;;;;;;;;;;-0.48;100.00;99085.97;4984826;28;19954;-56
2023/01/22 02:51:11;;;;;;;;;;;;;;;-0.49;100.00;99089.28;4984851;28;19955;-55
2023/01/22 02:53:38;;;;;;;;;;;;;;;-0.49;100.00;99094.31;4985506;28;19959;-58
2023/01/22 02:56:05;;;;;;;;;;;;;;;-0.50;100.00;99088.44;4987077;28;19949;-54
2023/01/22 02:58:30;;;;;;;;;;;;;;;-0.53;100.00;99088.34;4969830;28;20429;-55
2023/01/22 03:01:05;;;;;;;;;;;;;;;-0.53;100.00;99085.81;4973807;28;20014;-54
2023/01/22 03:03:31;;;;;;;;;;;;;;;-0.54;100.00;99081.59;4984441;28;19953;-57
2023/01/22 03:05:56;;;;;;;;;;;;;;;-0.52;100.00;99076.59;4983770;28;20059;-57
2023/01/22 03:08:25;;;;;;;;;;;;;;;-0.50;100.00;99082.53;4971788;28;19963;-55
2023/01/22 03:10:56;;;;;;;;;;;;;;;-0.52;100.00;99077.47;4973349;28;20673;-57
2023/01/22 03:21:42;;;;;;;;;;;;;;;-0.42;100.00;99073.56;4971720;28;20405;-55
2023/01/22 03:24:08;;;;;;;;;;;;;;;-0.41;100.00;99069.38;4987219;28;19946;-58
2023/01/22 03:26:35;;;;;;;;;;;;;;;-0.45;100.00;99073.47;4986840;28;19967;-55
2023/01/22 03:29:01;;;;;;;;;;;;;;;-0.43;100.00;99071.88;4986324;28;20018;-55
2023/01/22 03:31:26;;;;;;;;;;;;;;;-0.46;100.00;99067.56;4973183;28;19981;-58
2023/01/22 03:33:52;;;;;;;;;;;;;;;-0.46;100.00;99062.53;4971136;28;19958;-57
2023/01/22 03:36:17;;;;;;;;;;;;;;;-0.46;100.00;99059.16;4988038;28;20323;-56
2023/01/22 03:38:47;;;;;;;;;;;;;;;-0.44;100.00;99057.56;4986188;28;19942;-56
2023/01/22 03:41:17;;;;;;;;;;;;;;;-0.45;100.00;99063.41;4988321;28;19958;-54
2023/01/22 03:43:45;;;;;;;;;;;;;;;-0.41;100.00;99062.69;4987367;28;19961;-61
2023/01/22 03:46:16;;;;;;;;;;;;;;;-0.38;100.00;99065.28;4979233;28;19960;-57
2023/01/22 03:48:44;;;;;;;;;;;;;;;-0.40;100.00;99068.56;4973273;28;19947;-57
2023/01/22 03:51:11;;;;;;;;;;;;;;;-0.40;100.00;99079.50;4972258;28;20001;-57
2023/01/22 03:53:37;;;;;;;;;;;;;;;-0.36;100.00;99078.78;4983780;28;20006;-58
2023/01/22 03:56:04;;;;;;;;;;;;;;;-0.35;100.00;99088.06;4972422;28;20481;-58
2023/01/22 03:58:31;;;;;;;;;;;;;;;-0.37;100.00;99084.63;4974369;28;19992;-56
2023/01/22 04:01:01;;;;;;;;;;;;;;;-0.27;100.00;99091.69;4988908;28;20056;-56
2023/01/22 04:03:29;;;;;;;;;;;;;;;-0.17;100.00;99086.09;4979472;28;20100;-57
2023/01/22 04:05:58;;;;;;;;;;;;;;;0.03;100.00;99085.84;4983868;28;19962;-57
2023/01/22 04:08:24;;;;;;;;;;;;;;;-0.14;100.00;99077.78;4985995;28;20245;-56
2023/01/22 04:10:52;;;;;;;;;;;;;;;-0.10;100.00;99085.50;4974891;28;19961;-58
2023/01/22 04:13:19;;;;;;;;;;;;;;;-0.05;100.00;99086.50;4978345;28;20478;-56
2023/01/22 04:15:47;;;;;;;;;;;;;;;-0.03;100.00;99084.84;4987274;28;19957;-56
2023/01/22 04:18:33;;;;;;;;;;;;;;;0.33;100.00;99079.19;4971421;28;19958;-55
2023/01/22 04:21:14;;;;;;;;;;;;;;;0.24;100.00;99078.91;4986058;28;19950;-56
2023/01/22 04:23:44;;;;;;;;;;;;;;;0.15;100.00;99078.66;4972810;28;20414;-56
2023/01/22 04:26:09;;;;;;;;;;;;;;;0.04;100.00;99083.38;4986632;28;19954;-55
2023/01/22 04:28:35;;;;;;;;;;;;;;;0.20;100.00;99079.63;4987303;28;19954;-56
2023/01/22 04:31:01;;;;;;;;;;;;;;;0.12;100.00;99081.94;4971841;28;19954;-56
2023/01/22 04:33:56;;;;;;;;;;;;;;;0.09;100.00;99080.97;4973063;28;19953;-54
2023/01/22 04:36:25;;;;;;;;;;;;;;;0.05;100.00;99082.56;4986681;28;19956;-53
2023/01/22 04:38:51;;;;;;;;;;;;;;;-0.07;100.00;99082.19;4970604;28;19957;-58
2023/01/22 04:41:17;;;;;;;;;;;;;;;-0.16;100.00;99087.81;4983737;28;19949;-57
2023/01/22 04:43:43;;;;;;;;;;;;;;;-0.13;100.00;99085.38;4972413;28;20324;-55
2023/01/22 04:46:08;;;;;;;;;;;;;;;-0.16;100.00;99084.44;4986637;28;20063;-56
2023/01/22 04:48:35;;;;;;;;;;;;;;;0.06;100.00;99090.97;4987023;28;20408;-57
2023/01/22 04:51:00;;;;;;;;;;;;;;;-0.08;100.00;99098.97;4968858;28;19954;-55
2023/01/22 04:53:28;;;;;;;;;;;;;;;-0.02;100.00;99094.13;4984894;28;19988;-55
2023/01/22 04:55:54;;;;;;;;;;;;;;;0.01;100.00;99098.41;4956757;28;20043;-55
2023/01/22 04:58:20;;;;;;;;;;;;;;;-0.16;100.00;99102.06;4984203;28;20066;-55
2023/01/22 05:00:45;;;;;;;;;;;;;;;-0.23;100.00;99102.69;4983631;28;19976;-54
2023/01/22 05:03:11;;;;;;;;;;;;;;;-0.31;100.00;99102.47;4985795;28;19946;-56
2023/01/22 05:05:37;;;;;;;;;;;;;;;-0.32;100.00;99108.31;4988008;28;19980;-54
2023/01/22 05:08:03;;;;;;;;;;;;;;;-0.35;100.00;99099.81;4971707;28;20745;-55
2023/01/22 05:10:30;;;;;;;;;;;;;;;-0.44;100.00;99102.88;4979907;28;20176;-54
2023/01/22 05:12:56;;;;;;;;;;;;;;;-0.59;100.00;99110.78;4985959;28;20419;-55
2023/01/22 05:15:23;;;;;;;;;;;;;;;-0.64;100.00;99112.31;4986092;28;19964;-57
2023/01/22 05:17:50;;;;;;;;;;;;;;;-0.65;100.00;99113.13;4985610;28;20015;-56
2023/01/22 05:20:16;;;;;;;;;;;;;;;-0.67;100.00;99117.25;4967716;28;20574;-58
2023/01/22 05:22:43;;;;;;;;;;;;;;;-0.67;100.00;99118.91;4969629;28;19962;-55
2023/01/22 05:25:08;;;;;;;;;;;;;;;-0.72;100.00;99116.22;4985776;28;19958;-55
2023/01/22 05:27:34;;;;;;;;;;;;;;;-0.66;100.00;99115.56;4985344;28;19998;-59
2023/01/22 05:30:05;;;;;;;;;;;;;;;-0.77;100.00;99114.38;4988058;28;19954;-56
2023/01/22 05:32:55;;;;;;;;;;;;;;;-0.71;100.00;99122.97;4987910;28;19944;-53
2023/01/22 05:35:21;;;;;;;;;;;;;;;-0.68;100.00;99122.25;4989213;28;19970;-55
2023/01/22 05:37:47;;;;;;;;;;;;;;;-0.73;100.00;99127.13;4983889;28;20351;-55
2023/01/22 05:40:13;;;;;;;;;;;;;;;-0.69;100.00;99128.06;4989606;28;19950;-53
2023/01/22 05:42:39;;;;;;;;;;;;;;;-0.74;100.00;99120.38;4990965;28;19962;-55
2023/01/22 05:45:06;;;;;;;;;;;;;;;-0.79;100.00;99124.38;4989441;28;19950;-54
2023/01/22 05:47:35;;;;;;;;;;;;;;;-0.75;100.00;99122.81;4988255;28;20065;-57
2023/01/22 05:50:08;;;;;;;;;;;;;;;-0.81;100.00;99130.19;4976214;28;19949;-57
2023/01/22 05:52:34;;;;;;;;;;;;;;;-0.79;100.00;99131.06;4990577;28;20049;-55
2023/01/22 05:55:00;;;;;;;;;;;;;;;-0.80;100.00;99134.38;4970801;28;20016;-56
2023/01/22 05:57:31;;;;;;;;;;;;;;;-0.85;100.00;99133.41;4976216;28;19964;-58
2023/01/22 05:59:57;;;;;;;;;;;;;;;-0.80;100.00;99136.91;4989726;28;20499;-56
2023/01/22 06:02:24;;;;;;;;;;;;;;;-0.75;100.00;99132.88;4990350;28;20499;-58
2023/01/22 06:04:51;;;;;;;;;;;;;;;-0.80;100.00;99136.91;4990370;28;19981;-55
2023/01/22 06:07:22;;;;;;;;;;;;;;;-0.77;100.00;99137.91;4987975;28;20013;-54
2023/01/22 06:09:47;;;;;;;;;;;;;;;-0.79;100.00;99133.59;4976508;28;19952;-57
2023/01/22 06:12:14;;;;;;;;;;;;;;;-0.76;100.00;99136.19;4988707;28;19972;-56
2023/01/22 06:14:40;;;;;;;;;;;;;;;-0.82;100.00;99138.53;4977229;28;19976;-56
2023/01/22 06:17:06;;;;;;;;;;;;;;;-0.81;100.00;99147.81;4987964;28;19994;-56
2023/01/22 06:19:37;;;;;;;;;;;;;;;-0.79;100.00;99147.03;4988093;28;20597;-56
2023/01/22 06:22:03;;;;;;;;;;;;;;;-0.82;100.00;99146.94;4987306;28;19954;-55
2023/01/22 06:24:44;;;;;;;;;;;;;;;-0.83;100.00;99146.88;4988310;28;20009;-57
2023/01/22 06:27:12;;;;;;;;;;;;;;;-0.84;100.00;99147.69;4980814;28;20051;-57
2023/01/22 06:29:48;;;;;;;;;;;;;;;-0.87;100.00;99161.03;4988613;28;20296;-54
2023/01/22 06:32:14;;;;;;;;;;;;;;;-0.88;100.00;99159.31;4987728;28;20000;-56
2023/01/22 06:34:40;;;;;;;;;;;;;;;-0.79;100.00;99158.75;4988958;28;20324;-58
2023/01/22 06:37:06;;;;;;;;;;;;;;;-0.85;100.00;99161.94;4974228;28;20037;-56
2023/01/22 06:39:36;;;;;;;;;;;;;;;-0.82;100.00;99153.63;4986977;28;19957;-58
2023/01/22 06:42:08;;;;;;;;;;;;;;;-0.80;100.00;99157.03;4968538;28;20556;-58
2023/01/22 06:44:34;;;;;;;;;;;;;;;-0.76;100.00;99161.38;4971463;28;20052;-56
2023/01/22 06:46:59;;;;;;;;;;;;;;;-0.77;100.00;99159.69;4985993;28;20060;-56
2023/01/22 06:49:26;;;;;;;;;;;;;;;-0.76;100.00;99171.44;4985682;28;20072;-57
2023/01/22 06:51:53;;;;;;;;;;;;;;;-0.79;100.00;99172.22;4983452;28;20375;-57
2023/01/22 06:54:19;;;;;;;;;;;;;;;-0.78;100.00;99158.81;4971152;28;19950;-56
2023/01/22 06:56:45;;;;;;;;;;;;;;;-0.75;100.00;99166.47;4985457;28;19988;-55
2023/01/22 06:59:12;;;;;;;;;;;;;;;-0.74;100.00;99167.34;4984249;28;20032;-58
2023/01/22 07:01:38;;;;;;;;;;;;;;;-0.79;100.00;99161.28;4970877;28;19951;-59
2023/01/22 07:04:03;;;;;;;;;;;;;;;-0.75;100.00;99160.56;4970121;28;19946;-59
2023/01/22 07:06:29;;;;;;;;;;;;;;;-0.80;100.00;99164.59;4970463;28;20500;-59
2023/01/22 07:08:55;;;;;;;;;;;;;;;-0.80;100.00;99164.59;4983145;28;19953;-58
2023/01/22 07:11:21;;;;;;;;;;;;;;;-0.77;100.00;99174.78;4969823;28;20346;-56
2023/01/22 07:13:47;;;;;;;;;;;;;;;-0.79;100.00;99168.84;4971293;28;20646;-58
2023/01/22 07:16:12;;;;;;;;;;;;;;;-0.81;100.00;99175.50;4970490;28;19960;-57
2023/01/22 07:18:38;;;;;;;;;;;;;;;-0.77;100.00;99178.16;4970968;28;20047;-58
2023/01/22 07:21:04;;;;;;;;;;;;;;;-0.75;100.00;99170.66;4971844;28;19957;-59
2023/01/22 07:23:29;;;;;;;;;;;;;;;-0.81;100.00;99173.84;4970350;28;20332;-55
2023/01/22 07:25:55;;;;;;;;;;;;;;;-0.78;100.00;99178.09;4983626;28;19950;-50
2023/01/22 07:28:21;;;;;;;;;;;;;;;-0.82;100.00;99177.16;4971149;28;19986;-52
2023/01/22 07:30:46;;;;;;;;;;;;;;;-0.79;100.00;99184.78;4985907;28;19946;-51
2023/01/22 07:33:12;;;;;;;;;;;;;;;-0.75;100.00;99168.13;4969923;28;19985;-51
2023/01/22 07:35:38;;;;;;;;;;;;;;;-0.76;100.00;99184.03;4968921;28;20340;-53
2023/01/22 07:38:03;;;;;;;;;;;;;;;-0.75;100.00;99184.09;4967717;28;19946;-52
2023/01/22 07:40:29;;;;;;;;;;;;;;;-0.73;100.00;99185.03;4968233;28;20404;-52
2023/01/22 07:42:54;;;;;;;;;;;;;;;-0.77;100.00;99193.25;4968040;28;20383;-53
2023/01/22 07:45:23;;;;;;;;;;;;;;;-0.76;100.00;99200.00;4968388;28;19949;-53
2023/01/22 07:47:53;;;;;;;;;;;;;;;-0.77;100.00;99192.41;4966426;28;19986;-56
2023/01/22 07:50:20;;;;;;;;;;;;;;;-0.74;100.00;99190.84;4968954;28;20407;-52
2023/01/22 07:52:45;;;;;;;;;;;;;;;-0.77;100.00;99189.88;4969663;28;19951;-53
2023/01/22 07:55:11;;;;;;;;;;;;;;;-0.74;100.00;99190.84;4985535;28;19951;-53
2023/01/22 07:57:36;;;;;;;;;;;;;;;-0.72;100.00;99190.91;4969194;28;19955;-52
2023/01/22 08:00:02;;;;;;;;;;;;;;;-0.72;100.00;99208.53;4970530;28;19957;-51
2023/01/22 08:02:38;;;;;;;;;;;;;;;-0.68;100.00;99196.06;4970340;28;19956;-54
2023/01/22 08:05:04;;;;;;;;;;;;;;;-0.69;100.00;99196.91;4972315;28;20007;-54
2023/01/22 08:07:30;;;;;;;;;;;;;;;-0.66;100.00;99198.66;4969634;28;19967;-54
2023/01/22 08:09:56;;;;;;;;;;;;;;;-0.69;100.00;99206.13;4966752;28;19958;-52
2023/01/22 08:12:21;;;;;;;;;;;;;;;-0.71;100.00;99203.53;4969445;28;20027;-54
2023/01/22 08:14:47;;;;;;;;;;;;;;;-0.72;100.00;99206.00;4970241;28;20524;-57
2023/01/22 08:17:12;;;;;;;;;;;;;;;-0.66;100.00;99211.25;4969318;28;19993;-53
2023/01/22 08:19:38;;;;;;;;;;;;;;;-0.68;100.00;99207.84;4966968;28;19965;-54
2023/01/22 08:22:04;;;;;;;;;;;;;;;-0.67;100.00;99222.09;4969495;28;19951;-52
2023/01/22 08:24:30;;;;;;;;;;;;;;;-0.66;100.00;99217.13;4969814;28;19951;-54
2023/01/22 08:26:55;;;;;;;;;;;;;;;-0.65;100.00;99218.00;4970205;28;19968;-56
2023/01/22 08:29:21;;;;;;;;;;;;;;;-0.66;100.00;99226.34;4968799;28;19963;-50
2023/01/22 08:31:46;;;;;;;;;;;;;;;-0.63;100.00;99221.41;4968741;28;19961;-51
2023/01/22 08:34:12;;;;;;;;;;;;;;;-0.64;100.00;99229.78;4970589;28;20361;-52
2023/01/22 08:36:38;;;;;;;;;;;;;;;-0.73;100.00;99229.47;4970066;28;20395;-54
2023/01/22 08:39:03;;;;;;;;;;;;;;;-0.73;100.00;99230.31;4970333;28;20308;-52
2023/01/22 08:41:29;;;;;;;;;;;;;;;-0.67;100.00;99229.66;4970636;28;20042;-54
2023/01/22 08:43:54;;;;;;;;;;;;;;;-0.67;100.00;99237.22;4969644;28;19957;-52
2023/01/22 08:46:23;;;;;;;;;;;;;;;-0.65;100.00;99230.59;4966881;28;19989;-52
2023/01/22 08:48:49;;;;;;;;;;;;;;;-0.67;100.00;99240.59;4968396;28;20521;-53
2023/01/22 08:51:15;;;;;;;;;;;;;;;-0.68;100.00;99246.41;4968986;28;19954;-54
2023/01/22 08:53:40;;;;;;;;;;;;;;;-0.66;100.00;99242.31;4970396;28;20675;-50
2023/01/22 08:56:06;;;;;;;;;;;;;;;-0.65;100.00;99249.06;4970070;28;20252;-50
2023/01/22 08:58:32;;;;;;;;;;;;;;;-0.64;100.00;99255.81;4971263;28;20448;-51
2023/01/22 09:00:58;;;;;;;;;;;;;;;-0.53;100.00;99258.69;4966079;28;19950;-52
2023/01/22 09:03:23;;;;;;;;;;;;;;;-0.50;100.00;99266.34;4985515;28;20376;-55
2023/01/22 09:05:49;;;;;;;;;;;;;;;-0.43;100.00;99257.38;4972780;28;19958;-53
2023/01/22 09:08:15;;;;;;;;;;;;;;;-0.43;100.00;99257.38;4972323;28;20055;-51
2023/01/22 09:10:41;;;;;;;;;;;;;;;-0.44;100.00;99269.09;4973981;28;19995;-52
2023/01/22 09:13:06;;;;;;;;;;;;;;;-0.42;100.00;99272.50;4973296;28;19997;-53
2023/01/22 09:15:32;;;;;;;;;;;;;;;-0.39;100.00;99271.78;4972470;28;19958;-53
2023/01/22 09:17:59;;;;;;;;;;;;;;;-0.48;100.00;99278.22;4973131;28;19949;-55
2023/01/22 09:20:24;;;;;;;;;;;;;;;-0.42;100.00;99270.00;4972203;28;19954;-52
2023/01/22 09:22:50;;;;;;;;;;;;;;;-0.37;100.00;99265.09;4972453;28;19953;-53
2023/01/22 09:25:15;;;;;;;;;;;;;;;-0.38;100.00;99276.00;4972642;28;20410;-52
2023/01/22 09:27:41;;;;;;;;;;;;;;;-0.45;100.00;99274.94;4972303;28;20049;-53
2023/01/22 09:30:08;;;;;;;;;;;;;;;-0.49;100.00;99275.63;4970015;28;19955;-57
2023/01/22 09:32:34;;;;;;;;;;;;;;;-0.53;100.00;99279.69;4969742;28;19961;-50
2023/01/22 09:34:59;;;;;;;;;;;;;;;-0.50;100.00;99274.75;4973073;28;20323;-55
2023/01/22 09:37:25;;;;;;;;;;;;;;;-0.48;100.00;99269.78;4974196;28;20504;-54
2023/01/22 09:39:51;;;;;;;;;;;;;;;-0.51;100.00;99278.06;4973034;28;19958;-57
2023/01/22 09:42:20;;;;;;;;;;;;;;;-0.42;100.00;99280.06;4968636;28;20162;-57
2023/01/22 09:44:47;;;;;;;;;;;;;;;-0.34;100.00;99278.66;4977434;28;19950;-55
2023/01/22 09:47:15;;;;;;;;;;;;;;;-0.29;100.00;99278.81;4970354;28;20298;-59
2023/01/22 09:49:40;;;;;;;;;;;;;;;-0.39;100.00;99277.66;4971268;28;19947;-59
2023/01/22 09:52:06;;;;;;;;;;;;;;;-0.30;100.00;99284.69;4970382;28;19950;-59
2023/01/22 09:54:34;;;;;;;;;;;;;;;-0.32;100.00;99286.28;4972207;28;19950;-59
2023/01/22 09:57:02;;;;;;;;;;;;;;;-0.17;100.00;99289.34;4968122;28;19990;-60
2023/01/22 09:59:34;;;;;;;;;;;;;;;-0.21;100.00;99290.88;4967494;28;19944;-58
2023/01/22 10:02:02;;;;;;;;;;;;;;;-0.12;100.00;99287.81;4969621;28;19955;-58
2023/01/22 10:04:31;;;;;;;;;;;;;;;-0.16;100.00;99293.53;4971104;28;19941;-59
2023/01/22 10:06:58;;;;;;;;;;;;;;;-0.14;100.00;99297.84;4970220;28;19958;-58
2023/01/22 10:09:23;;;;;;;;;;;;;;;-0.12;100.00;99301.25;4970454;28;19988;-55
2023/01/22 10:11:52;;;;;;;;;;;;;;;-0.08;100.00;99305.59;4971184;28;20485;-55
2023/01/22 10:14:19;;;;;;;;;;;;;;;-0.03;100.00;99304.09;4970310;28;20038;-55
2023/01/22 10:16:44;;;;;;;;;;;;;;;0.01;100.00;99307.56;4969000;28;19955;-54
2023/01/22 10:19:13;;;;;;;;;;;;;;;-0.12;100.00;99293.72;4969637;28;19946;-56
2023/01/22 10:21:41;;;;;;;;;;;;;;;0.12;100.00;99305.41;4970639;28;19952;-57
2023/01/22 10:24:10;;;;;;;;;;;;;;;0.26;100.00;99299.16;4971124;28;19948;-57
2023/01/22 10:26:37;;;;;;;;;;;;;;;0.24;100.00;99308.34;4971242;28;19968;-57
2023/01/22 10:29:08;;;;;;;;;;;;;;;0.42;100.00;99301.38;4970798;28;20066;-58
2023/01/22 10:31:35;;;;;;;;;;;;;;;0.42;100.00;99308.94;4972691;28;19942;-57
2023/01/22 10:34:21;;;;;;;;;;;;;;;0.48;100.00;99304.06;4970472;28;19942;-59
2023/01/22 10:36:48;;;;;;;;;;;;;;;0.46;100.00;99308.22;4970705;28;19989;-56
2023/01/22 10:39:15;;;;;;;;;;;;;;;0.68;100.00;99300.50;4969351;28;19947;-55
2023/01/22 10:41:41;;;;;;;;;;;;;;;0.67;100.00;99306.38;4969658;28;19950;-58
2023/01/22 10:44:16;;;;;;;;;;;;;;;0.75;100.00;99304.94;4970337;28;19948;-57
2023/01/22 10:46:42;;;;;;;;;;;;;;;0.79;100.00;99300.84;4968042;28;20100;-60
2023/01/22 10:49:14;;;;;;;;;;;;;;;1.05;100.00;99310.03;4968623;28;19948;-59
2023/01/22 10:51:41;;;;;;;;;;;;;;;1.02;100.00;99309.94;4972472;28;19947;-58
2023/01/22 10:54:20;;;;;;;;;;;;;;;0.94;100.00;99306.31;4969861;28;19949;-57
2023/01/22 10:56:47;;;;;;;;;;;;;;;0.89;100.00;99315.47;4972000;28;19945;-57
2023/01/22 10:59:23;;;;;;;;;;;;;;;1.01;100.00;99309.91;4970437;28;20404;-56
2023/01/22 11:01:55;;;;;;;;;;;;;;;0.99;100.00;99309.00;4972896;28;19989;-58
2023/01/22 11:04:22;;;;;;;;;;;;;;;0.92;100.00;99305.44;4970131;28;19946;-58
2023/01/22 11:06:50;;;;;;;;;;;;;;;0.92;100.00;99300.41;4972148;28;19966;-59
2023/01/22 11:09:15;;;;;;;;;;;;;;;1.08;100.00;99306.75;4969178;28;20015;-59
2023/01/22 11:11:45;;;;;;;;;;;;;;;1.08;100.00;99296.66;4966983;28;20024;-59
2023/01/22 11:14:12;;;;;;;;;;;;;;;1.10;100.00;99295.91;4970749;28;20042;-58
2023/01/22 11:16:39;;;;;;;;;;;;;;;1.07;100.00;99302.50;4971446;28;19956;-59
2023/01/22 11:19:10;;;;;;;;;;;;;;;0.88;100.00;99298.59;4971685;28;20438;-58
2023/01/22 11:21:38;;;;;;;;;;;;;;;0.91;100.00;99302.06;4970231;28;19950;-58
2023/01/22 11:24:13;;;;;;;;;;;;;;;0.88;100.00;99293.53;4985015;28;19948;-58
2023/01/22 11:27:04;;;;;;;;;;;;;;;0.88;100.00;99293.53;4967235;28;20463;-58
2023/01/22 11:29:49;;;;;;;;;;;;;;;0.93;100.00;99301.25;4970733;28;20412;-59
2023/01/22 11:32:17;;;;;;;;;;;;;;;1.00;100.00;99304.00;4968801;28;19947;-58
2023/01/22 11:34:55;;;;;;;;;;;;;;;0.99;100.00;99303.94;4985841;28;19962;-59
2023/01/22 11:37:39;;;;;;;;;;;;;;;1.13;100.00;99298.50;4970946;28;20426;-60
2023/01/22 11:40:23;;;;;;;;;;;;;;;1.09;100.00;99296.69;4971212;28;20410;-57
2023/01/22 11:43:07;;;;;;;;;;;;;;;1.18;100.00;99298.63;4969940;28;19948;-58
2023/01/22 11:45:46;;;;;;;;;;;;;;;1.33;100.00;99287.28;4969464;28;19991;-60
2023/01/22 11:48:19;;;;;;;;;;;;;;;1.36;100.00;99296.59;4966120;28;20082;-59
2023/01/22 11:50:57;;;;;;;;;;;;;;;1.37;100.00;99288.22;4969056;28;20031;-59
2023/01/22 11:53:39;;;;;;;;;;;;;;;1.44;100.00;99287.59;4981922;28;19964;-56
2023/01/22 11:56:04;;;;;;;;;;;;;;;1.49;100.00;99280.13;4968799;28;20407;-59
2023/01/22 11:58:48;;;;;;;;;;;;;;;1.28;100.00;99287.97;4969123;28;19973;-57
2023/01/22 12:01:22;;;;;;;;;;;;;;;1.26;100.00;99287.94;4969898;28;19949;-59
2023/01/22 12:03:59;;;;;;;;;;;;;;;1.22;100.00;99287.81;4985405;28;20030;-59
2023/01/22 12:06:43;;;;;;;;;;;;;;;1.06;100.00;99285.66;4985819;28;19969;-55
2023/01/22 12:09:28;;;;;;;;;;;;;;;1.16;100.00;99285.09;4968540;28;20002;-58
2023/01/22 12:12:10;;;;;;;;;;;;;;;1.23;100.00;99295.41;4971507;28;19960;-56
2023/01/22 12:14:46;;;;;;;;;;;;;;;1.21;100.00;99291.13;4969998;28;20022;-56
2023/01/22 12:17:20;;;;;;;;;;;;;;;1.30;100.00;99294.78;4969510;28;19988;-56
2023/01/22 12:19:55;;;;;;;;;;;;;;;1.33;100.00;99291.47;4970283;28;19953;-58
2023/01/22 12:22:30;;;;;;;;;;;;;;;1.21;100.00;99292.00;4971241;28;19944;-54
2023/01/22 12:25:22;;;;;;;;;;;;;;;1.34;100.00;99295.72;4970350;28;20270;-57
2023/01/22 12:27:52;;;;;;;;;;;;;;;1.32;100.00;99294.81;4978238;28;20659;-55
2023/01/22 12:30:23;;;;;;;;;;;;;;;1.45;100.00;99294.34;4977061;28;19951;-56
2023/01/22 12:32:53;;;;;;;;;;;;;;;1.50;100.00;99295.31;4977724;28;19951;-54
2023/01/22 12:35:20;;;;;;;;;;;;;;;1.55;100.00;99296.31;4978154;28;19977;-58
2023/01/22 12:37:45;;;;;;;;;;;;;;;1.53;100.00;99292.88;4952713;28;19966;-56
2023/01/22 12:40:30;;;;;;;;;;;;;;;1.45;100.00;99306.09;4976425;28;19990;-55
2023/01/22 12:43:03;;;;;;;;;;;;;;;1.52;100.00;99305.47;4961321;28;20416;-56
2023/01/22 12:45:37;;;;;;;;;;;;;;;1.48;100.00;99314.66;4962274;28;19952;-55
2023/01/22 12:48:10;;;;;;;;;;;;;;;1.37;100.00;99309.28;4975397;28;21410;-54
2023/01/22 12:50:46;;;;;;;;;;;;;;;1.43;100.00;99317.84;4976330;28;19999;-57